sensor_id;sensor_type;location;lat;lon;timestamp;P1;durP1;ratioP1;P2;durP2;ratioP2
22320;SDS011;11328;53.928;18.522;2023-03-23T00:01:57;30.30;;;22.20;;
22320;SDS011;11328;53.928;18.522;2023-03-23T00:04:23;28.25;;;21.27;;
22320;SDS011;11328;53.928;18.522;2023-03-23T00:06:50;34.25;;;23.58;;
22320;SDS011;11328;53.928;18.522;2023-03-23T00:09:16;31.45;;;22.63;;
22320;SDS011;11328;53.928;18.522;2023-03-23T00:11:48;30.42;;;21.90;;
22320;SDS011;11328;53.928;18.522;2023-03-23T00:14:15;31.67;;;21.02;;
22320;SDS011;11328;53.928;18.522;2023-03-23T00:16:47;29.65;;;21.42;;
22320;SDS011;11328;53.928;18.522;2023-03-23T00:19:15;29.17;;;21.02;;
22320;SDS011;11328;53.928;18.522;2023-03-23T00:21:42;29.13;;;21.15;;
22320;SDS011;11328;53.928;18.522;2023-03-23T00:24:09;28.67;;;21.27;;
22320;SDS011;11328;53.928;18.522;2023-03-23T00:26:44;27.73;;;20.10;;
22320;SDS011;11328;53.928;18.522;2023-03-23T00:29:15;28.02;;;20.50;;
22320;SDS011;11328;53.928;18.522;2023-03-23T00:31:45;31.77;;;20.33;;
22320;SDS011;11328;53.928;18.522;2023-03-23T00:34:14;28.10;;;20.80;;
22320;SDS011;11328;53.928;18.522;2023-03-23T00:36:46;26.45;;;21.00;;
22320;SDS011;11328;53.928;18.522;2023-03-23T00:39:15;28.30;;;20.77;;
22320;SDS011;11328;53.928;18.522;2023-03-23T00:41:43;30.50;;;20.65;;
22320;SDS011;11328;53.928;18.522;2023-03-23T00:44:10;28.38;;;20.77;;
22320;SDS011;11328;53.928;18.522;2023-03-23T00:46:41;30.83;;;22.10;;
22320;SDS011;11328;53.928;18.522;2023-03-23T00:49:17;29.23;;;20.87;;
22320;SDS011;11328;53.928;18.522;2023-03-23T00:51:50;31.08;;;20.88;;
22320;SDS011;11328;53.928;18.522;2023-03-23T00:54:18;27.73;;;20.90;;
22320;SDS011;11328;53.928;18.522;2023-03-23T00:56:45;29.35;;;20.77;;
22320;SDS011;11328;53.928;18.522;2023-03-23T00:59:11;28.08;;;19.65;;
22320;SDS011;11328;53.928;18.522;2023-03-23T01:01:37;27.85;;;20.50;;
22320;SDS011;11328;53.928;18.522;2023-03-23T01:04:03;26.98;;;20.27;;
22320;SDS011;11328;53.928;18.522;2023-03-23T01:06:30;27.35;;;19.70;;
22320;SDS011;11328;53.928;18.522;2023-03-23T01:09:00;26.23;;;19.38;;
22320;SDS011;11328;53.928;18.522;2023-03-23T01:11:27;26.15;;;19.50;;
22320;SDS011;11328;53.928;18.522;2023-03-23T01:13:53;26.88;;;18.95;;
22320;SDS011;11328;53.928;18.522;2023-03-23T01:16:19;27.73;;;19.02;;
22320;SDS011;11328;53.928;18.522;2023-03-23T01:18:46;26.55;;;19.98;;
22320;SDS011;11328;53.928;18.522;2023-03-23T01:21:13;25.02;;;18.75;;
22320;SDS011;11328;53.928;18.522;2023-03-23T01:23:43;26.70;;;18.70;;
22320;SDS011;11328;53.928;18.522;2023-03-23T01:26:10;27.20;;;18.58;;
22320;SDS011;11328;53.928;18.522;2023-03-23T01:28:42;26.45;;;18.42;;
22320;SDS011;11328;53.928;18.522;2023-03-23T01:31:16;26.88;;;17.67;;
22320;SDS011;11328;53.928;18.522;2023-03-23T01:33:50;30.77;;;19.42;;
22320;SDS011;11328;53.928;18.522;2023-03-23T01:36:18;25.10;;;18.38;;
22320;SDS011;11328;53.928;18.522;2023-03-23T01:38:48;28.33;;;17.67;;
22320;SDS011;11328;53.928;18.522;2023-03-23T01:41:16;27.40;;;18.67;;
22320;SDS011;11328;53.928;18.522;2023-03-23T01:43:53;26.00;;;18.75;;
22320;SDS011;11328;53.928;18.522;2023-03-23T01:46:51;23.92;;;17.55;;
22320;SDS011;11328;53.928;18.522;2023-03-23T01:49:21;23.23;;;17.85;;
22320;SDS011;11328;53.928;18.522;2023-03-23T01:54:35;23.52;;;16.30;;
22320;SDS011;11328;53.928;18.522;2023-03-23T01:57:07;24.50;;;16.50;;
22320;SDS011;11328;53.928;18.522;2023-03-23T01:59:38;21.58;;;16.67;;
22320;SDS011;11328;53.928;18.522;2023-03-23T02:02:10;25.65;;;17.83;;
22320;SDS011;11328;53.928;18.522;2023-03-23T02:04:38;24.73;;;17.05;;
22320;SDS011;11328;53.928;18.522;2023-03-23T02:07:06;26.08;;;17.17;;
22320;SDS011;11328;53.928;18.522;2023-03-23T02:09:34;23.83;;;17.55;;
22320;SDS011;11328;53.928;18.522;2023-03-23T02:12:00;23.33;;;17.20;;
22320;SDS011;11328;53.928;18.522;2023-03-23T02:14:27;23.35;;;16.95;;
22320;SDS011;11328;53.928;18.522;2023-03-23T02:28:46;23.98;;;15.40;;
22320;SDS011;11328;53.928;18.522;2023-03-23T02:34:48;24.20;;;16.00;;
22320;SDS011;11328;53.928;18.522;2023-03-23T02:37:36;22.25;;;15.23;;
22320;SDS011;11328;53.928;18.522;2023-03-23T02:40:24;23.92;;;16.15;;
22320;SDS011;11328;53.928;18.522;2023-03-23T02:42:58;23.63;;;17.08;;
22320;SDS011;11328;53.928;18.522;2023-03-23T02:45:26;24.17;;;16.33;;
22320;SDS011;11328;53.928;18.522;2023-03-23T02:47:56;25.60;;;16.10;;
22320;SDS011;11328;53.928;18.522;2023-03-23T02:50:24;25.92;;;15.75;;
22320;SDS011;11328;53.928;18.522;2023-03-23T02:52:54;23.95;;;15.63;;
22320;SDS011;11328;53.928;18.522;2023-03-23T02:55:24;22.25;;;15.65;;
22320;SDS011;11328;53.928;18.522;2023-03-23T02:57:54;25.25;;;16.08;;
22320;SDS011;11328;53.928;18.522;2023-03-23T03:00:20;23.52;;;15.75;;
22320;SDS011;11328;53.928;18.522;2023-03-23T03:02:48;23.25;;;15.75;;
22320;SDS011;11328;53.928;18.522;2023-03-23T03:10:54;20.30;;;15.18;;
22320;SDS011;11328;53.928;18.522;2023-03-23T03:14:00;25.58;;;15.38;;
22320;SDS011;11328;53.928;18.522;2023-03-23T03:16:34;23.60;;;15.30;;
22320;SDS011;11328;53.928;18.522;2023-03-23T03:19:19;25.48;;;14.88;;
22320;SDS011;11328;53.928;18.522;2023-03-23T03:21:52;23.67;;;15.93;;
22320;SDS011;11328;53.928;18.522;2023-03-23T03:24:23;24.60;;;16.17;;
22320;SDS011;11328;53.928;18.522;2023-03-23T03:26:53;23.20;;;15.52;;
22320;SDS011;11328;53.928;18.522;2023-03-23T03:29:31;22.70;;;15.90;;
22320;SDS011;11328;53.928;18.522;2023-03-23T03:32:00;23.77;;;16.33;;
22320;SDS011;11328;53.928;18.522;2023-03-23T03:34:32;23.42;;;15.23;;
22320;SDS011;11328;53.928;18.522;2023-03-23T03:36:59;21.25;;;14.90;;
22320;SDS011;11328;53.928;18.522;2023-03-23T03:39:25;21.20;;;14.88;;
22320;SDS011;11328;53.928;18.522;2023-03-23T03:41:53;22.88;;;15.13;;
22320;SDS011;11328;53.928;18.522;2023-03-23T03:44:20;25.48;;;15.13;;
22320;SDS011;11328;53.928;18.522;2023-03-23T03:46:46;23.95;;;16.40;;
22320;SDS011;11328;53.928;18.522;2023-03-23T03:49:12;23.73;;;15.38;;
22320;SDS011;11328;53.928;18.522;2023-03-23T03:51:38;23.38;;;15.65;;
22320;SDS011;11328;53.928;18.522;2023-03-23T03:54:05;23.77;;;14.77;;
22320;SDS011;11328;53.928;18.522;2023-03-23T03:56:31;24.73;;;15.05;;
22320;SDS011;11328;53.928;18.522;2023-03-23T03:59:01;20.95;;;14.20;;
22320;SDS011;11328;53.928;18.522;2023-03-23T04:01:28;19.70;;;14.25;;
22320;SDS011;11328;53.928;18.522;2023-03-23T04:03:54;21.48;;;14.68;;
22320;SDS011;11328;53.928;18.522;2023-03-23T04:06:20;22.83;;;14.13;;
22320;SDS011;11328;53.928;18.522;2023-03-23T04:08:46;23.50;;;14.77;;
22320;SDS011;11328;53.928;18.522;2023-03-23T04:11:13;19.98;;;13.95;;
22320;SDS011;11328;53.928;18.522;2023-03-23T04:13:40;23.50;;;14.52;;
22320;SDS011;11328;53.928;18.522;2023-03-23T04:16:07;20.27;;;14.85;;
22320;SDS011;11328;53.928;18.522;2023-03-23T04:18:34;20.80;;;14.20;;
22320;SDS011;11328;53.928;18.522;2023-03-23T04:21:01;25.15;;;14.77;;
22320;SDS011;11328;53.928;18.522;2023-03-23T04:23:29;21.83;;;14.10;;
22320;SDS011;11328;53.928;18.522;2023-03-23T04:25:59;21.90;;;13.57;;
22320;SDS011;11328;53.928;18.522;2023-03-23T04:28:25;20.23;;;13.35;;
22320;SDS011;11328;53.928;18.522;2023-03-23T04:30:53;20.50;;;13.13;;
22320;SDS011;11328;53.928;18.522;2023-03-23T04:33:23;21.50;;;13.30;;
22320;SDS011;11328;53.928;18.522;2023-03-23T04:35:54;21.35;;;13.32;;
22320;SDS011;11328;53.928;18.522;2023-03-23T04:38:28;18.02;;;13.13;;
22320;SDS011;11328;53.928;18.522;2023-03-23T04:40:57;21.13;;;13.30;;
22320;SDS011;11328;53.928;18.522;2023-03-23T04:43:28;20.48;;;13.90;;
22320;SDS011;11328;53.928;18.522;2023-03-23T04:45:55;20.85;;;13.63;;
22320;SDS011;11328;53.928;18.522;2023-03-23T04:48:27;20.88;;;13.77;;
22320;SDS011;11328;53.928;18.522;2023-03-23T04:50:58;21.30;;;13.45;;
22320;SDS011;11328;53.928;18.522;2023-03-23T04:53:27;18.75;;;12.95;;
22320;SDS011;11328;53.928;18.522;2023-03-23T04:55:55;19.42;;;13.07;;
22320;SDS011;11328;53.928;18.522;2023-03-23T04:58:21;19.13;;;12.93;;
22320;SDS011;11328;53.928;18.522;2023-03-23T05:00:48;18.55;;;12.63;;
22320;SDS011;11328;53.928;18.522;2023-03-23T05:03:17;20.85;;;12.75;;
22320;SDS011;11328;53.928;18.522;2023-03-23T05:05:44;20.02;;;12.43;;
22320;SDS011;11328;53.928;18.522;2023-03-23T05:08:21;20.20;;;12.07;;
22320;SDS011;11328;53.928;18.522;2023-03-23T05:10:52;18.50;;;12.13;;
22320;SDS011;11328;53.928;18.522;2023-03-23T05:13:22;18.90;;;11.98;;
22320;SDS011;11328;53.928;18.522;2023-03-23T05:15:48;20.88;;;14.32;;
22320;SDS011;11328;53.928;18.522;2023-03-23T05:18:15;19.67;;;12.95;;
22320;SDS011;11328;53.928;18.522;2023-03-23T05:20:41;20.40;;;12.50;;
22320;SDS011;11328;53.928;18.522;2023-03-23T05:23:08;19.40;;;12.68;;
22320;SDS011;11328;53.928;18.522;2023-03-23T05:25:36;21.13;;;12.20;;
22320;SDS011;11328;53.928;18.522;2023-03-23T05:28:06;22.00;;;12.13;;
22320;SDS011;11328;53.928;18.522;2023-03-23T05:30:34;20.52;;;12.98;;
22320;SDS011;11328;53.928;18.522;2023-03-23T05:33:00;18.92;;;12.15;;
22320;SDS011;11328;53.928;18.522;2023-03-23T05:35:26;19.50;;;12.75;;
22320;SDS011;11328;53.928;18.522;2023-03-23T05:37:52;20.10;;;12.15;;
22320;SDS011;11328;53.928;18.522;2023-03-23T05:40:19;18.80;;;11.77;;
22320;SDS011;11328;53.928;18.522;2023-03-23T05:42:45;17.52;;;11.93;;
22320;SDS011;11328;53.928;18.522;2023-03-23T05:45:13;17.58;;;12.15;;
22320;SDS011;11328;53.928;18.522;2023-03-23T05:47:39;18.17;;;11.35;;
22320;SDS011;11328;53.928;18.522;2023-03-23T05:50:07;18.08;;;11.45;;
22320;SDS011;11328;53.928;18.522;2023-03-23T05:52:37;19.17;;;12.07;;
22320;SDS011;11328;53.928;18.522;2023-03-23T05:55:05;19.05;;;11.95;;
22320;SDS011;11328;53.928;18.522;2023-03-23T05:57:32;18.85;;;12.63;;
22320;SDS011;11328;53.928;18.522;2023-03-23T05:59:59;20.50;;;12.50;;
22320;SDS011;11328;53.928;18.522;2023-03-23T06:02:38;18.65;;;11.57;;
22320;SDS011;11328;53.928;18.522;2023-03-23T06:05:09;17.25;;;11.20;;
22320;SDS011;11328;53.928;18.522;2023-03-23T06:07:35;21.98;;;11.48;;
22320;SDS011;11328;53.928;18.522;2023-03-23T06:10:03;22.40;;;11.20;;
22320;SDS011;11328;53.928;18.522;2023-03-23T06:12:34;16.55;;;10.63;;
22320;SDS011;11328;53.928;18.522;2023-03-23T06:15:01;17.20;;;11.65;;
22320;SDS011;11328;53.928;18.522;2023-03-23T06:17:30;21.60;;;11.38;;
22320;SDS011;11328;53.928;18.522;2023-03-23T06:19:56;16.60;;;9.07;;
22320;SDS011;11328;53.928;18.522;2023-03-23T06:22:21;17.55;;;10.77;;
22320;SDS011;11328;53.928;18.522;2023-03-23T06:24:47;16.75;;;9.60;;
22320;SDS011;11328;53.928;18.522;2023-03-23T06:27:14;14.70;;;9.63;;
22320;SDS011;11328;53.928;18.522;2023-03-23T06:29:41;19.02;;;11.57;;
22320;SDS011;11328;53.928;18.522;2023-03-23T06:32:07;16.30;;;9.95;;
22320;SDS011;11328;53.928;18.522;2023-03-23T06:34:37;20.27;;;11.43;;
22320;SDS011;11328;53.928;18.522;2023-03-23T06:37:03;19.80;;;12.25;;
22320;SDS011;11328;53.928;18.522;2023-03-23T06:39:28;17.65;;;10.57;;
22320;SDS011;11328;53.928;18.522;2023-03-23T06:41:56;18.38;;;10.80;;
22320;SDS011;11328;53.928;18.522;2023-03-23T06:44:24;19.85;;;11.07;;
22320;SDS011;11328;53.928;18.522;2023-03-23T06:46:50;17.05;;;10.48;;
22320;SDS011;11328;53.928;18.522;2023-03-23T06:49:16;19.20;;;11.00;;
22320;SDS011;11328;53.928;18.522;2023-03-23T06:51:43;18.65;;;11.38;;
22320;SDS011;11328;53.928;18.522;2023-03-23T06:54:09;18.75;;;11.93;;
22320;SDS011;11328;53.928;18.522;2023-03-23T06:56:35;23.85;;;12.55;;
22320;SDS011;11328;53.928;18.522;2023-03-23T06:59:01;25.15;;;14.82;;
22320;SDS011;11328;53.928;18.522;2023-03-23T07:01:28;19.40;;;10.90;;
22320;SDS011;11328;53.928;18.522;2023-03-23T07:03:55;22.10;;;11.30;;
22320;SDS011;11328;53.928;18.522;2023-03-23T07:06:21;20.05;;;12.50;;
22320;SDS011;11328;53.928;18.522;2023-03-23T07:08:47;17.55;;;11.38;;
22320;SDS011;11328;53.928;18.522;2023-03-23T07:11:13;20.40;;;11.88;;
22320;SDS011;11328;53.928;18.522;2023-03-23T07:13:39;25.38;;;11.85;;
22320;SDS011;11328;53.928;18.522;2023-03-23T07:16:05;23.08;;;12.30;;
22320;SDS011;11328;53.928;18.522;2023-03-23T07:18:32;25.50;;;12.25;;
22320;SDS011;11328;53.928;18.522;2023-03-23T07:20:58;20.90;;;11.23;;
22320;SDS011;11328;53.928;18.522;2023-03-23T07:23:28;20.15;;;11.18;;
22320;SDS011;11328;53.928;18.522;2023-03-23T07:25:55;18.98;;;10.55;;
22320;SDS011;11328;53.928;18.522;2023-03-23T07:28:22;20.90;;;10.50;;
22320;SDS011;11328;53.928;18.522;2023-03-23T07:30:48;16.75;;;9.38;;
22320;SDS011;11328;53.928;18.522;2023-03-23T07:33:14;18.83;;;9.90;;
22320;SDS011;11328;53.928;18.522;2023-03-23T07:35:40;15.90;;;9.82;;
22320;SDS011;11328;53.928;18.522;2023-03-23T07:38:06;18.20;;;9.65;;
22320;SDS011;11328;53.928;18.522;2023-03-23T07:40:34;15.20;;;9.88;;
22320;SDS011;11328;53.928;18.522;2023-03-23T07:43:00;16.67;;;9.52;;
22320;SDS011;11328;53.928;18.522;2023-03-23T07:45:29;17.73;;;9.40;;
22320;SDS011;11328;53.928;18.522;2023-03-23T07:47:56;16.85;;;10.93;;
22320;SDS011;11328;53.928;18.522;2023-03-23T07:50:22;17.58;;;9.77;;
22320;SDS011;11328;53.928;18.522;2023-03-23T07:52:56;17.83;;;10.57;;
22320;SDS011;11328;53.928;18.522;2023-03-23T07:55:23;14.68;;;8.93;;
22320;SDS011;11328;53.928;18.522;2023-03-23T07:57:50;18.13;;;9.38;;
22320;SDS011;11328;53.928;18.522;2023-03-23T08:00:18;18.23;;;10.18;;
22320;SDS011;11328;53.928;18.522;2023-03-23T08:02:49;16.50;;;9.45;;
22320;SDS011;11328;53.928;18.522;2023-03-23T08:05:24;15.57;;;8.73;;
22320;SDS011;11328;53.928;18.522;2023-03-23T08:07:55;13.95;;;7.53;;
22320;SDS011;11328;53.928;18.522;2023-03-23T08:10:22;12.25;;;7.78;;
22320;SDS011;11328;53.928;18.522;2023-03-23T08:12:50;17.30;;;7.88;;
22320;SDS011;11328;53.928;18.522;2023-03-23T08:15:19;15.35;;;8.38;;
22320;SDS011;11328;53.928;18.522;2023-03-23T08:17:46;14.63;;;8.00;;
22320;SDS011;11328;53.928;18.522;2023-03-23T08:20:13;11.45;;;7.10;;
22320;SDS011;11328;53.928;18.522;2023-03-23T08:22:45;13.13;;;6.93;;
22320;SDS011;11328;53.928;18.522;2023-03-23T08:25:19;11.18;;;6.80;;
22320;SDS011;11328;53.928;18.522;2023-03-23T08:27:45;14.15;;;6.68;;
22320;SDS011;11328;53.928;18.522;2023-03-23T08:30:11;13.60;;;7.40;;
22320;SDS011;11328;53.928;18.522;2023-03-23T08:32:42;13.07;;;7.03;;
22320;SDS011;11328;53.928;18.522;2023-03-23T08:35:09;14.02;;;7.30;;
22320;SDS011;11328;53.928;18.522;2023-03-23T08:37:37;12.80;;;7.10;;
22320;SDS011;11328;53.928;18.522;2023-03-23T08:40:05;13.63;;;7.30;;
22320;SDS011;11328;53.928;18.522;2023-03-23T08:42:33;16.00;;;7.38;;
22320;SDS011;11328;53.928;18.522;2023-03-23T08:44:59;15.55;;;7.05;;
22320;SDS011;11328;53.928;18.522;2023-03-23T08:47:26;11.27;;;6.10;;
22320;SDS011;11328;53.928;18.522;2023-03-23T08:49:51;13.73;;;6.03;;
22320;SDS011;11328;53.928;18.522;2023-03-23T08:52:19;11.48;;;5.68;;
22320;SDS011;11328;53.928;18.522;2023-03-23T08:54:45;10.73;;;5.47;;
22320;SDS011;11328;53.928;18.522;2023-03-23T08:57:12;13.98;;;6.10;;
22320;SDS011;11328;53.928;18.522;2023-03-23T08:59:43;11.20;;;6.15;;
22320;SDS011;11328;53.928;18.522;2023-03-23T09:02:10;12.25;;;6.00;;
22320;SDS011;11328;53.928;18.522;2023-03-23T09:04:39;13.45;;;6.60;;
22320;SDS011;11328;53.928;18.522;2023-03-23T09:07:09;10.82;;;5.97;;
22320;SDS011;11328;53.928;18.522;2023-03-23T09:09:38;12.70;;;6.30;;
22320;SDS011;11328;53.928;18.522;2023-03-23T09:12:05;15.35;;;6.68;;
22320;SDS011;11328;53.928;18.522;2023-03-23T09:14:33;11.63;;;6.03;;
22320;SDS011;11328;53.928;18.522;2023-03-23T09:17:01;13.93;;;6.15;;
22320;SDS011;11328;53.928;18.522;2023-03-23T09:19:28;12.77;;;5.93;;
22320;SDS011;11328;53.928;18.522;2023-03-23T09:21:55;11.48;;;6.10;;
22320;SDS011;11328;53.928;18.522;2023-03-23T09:24:21;13.90;;;6.05;;
22320;SDS011;11328;53.928;18.522;2023-03-23T09:26:47;12.75;;;6.07;;
22320;SDS011;11328;53.928;18.522;2023-03-23T09:29:13;9.55;;;5.65;;
22320;SDS011;11328;53.928;18.522;2023-03-23T09:31:40;10.65;;;5.88;;
22320;SDS011;11328;53.928;18.522;2023-03-23T09:34:07;11.43;;;5.75;;
22320;SDS011;11328;53.928;18.522;2023-03-23T09:36:36;8.68;;;4.82;;
22320;SDS011;11328;53.928;18.522;2023-03-23T09:39:04;14.90;;;5.90;;
22320;SDS011;11328;53.928;18.522;2023-03-23T09:47:38;9.60;;;5.88;;
22320;SDS011;11328;53.928;18.522;2023-03-23T09:50:30;9.57;;;5.28;;
22320;SDS011;11328;53.928;18.522;2023-03-23T09:53:05;12.93;;;5.25;;
22320;SDS011;11328;53.928;18.522;2023-03-23T09:56:05;11.10;;;5.03;;
22320;SDS011;11328;53.928;18.522;2023-03-23T09:58:50;14.68;;;4.88;;
22320;SDS011;11328;53.928;18.522;2023-03-23T10:01:29;10.02;;;5.28;;
22320;SDS011;11328;53.928;18.522;2023-03-23T10:04:48;9.77;;;4.85;;
22320;SDS011;11328;53.928;18.522;2023-03-23T10:09:42;9.68;;;4.55;;
22320;SDS011;11328;53.928;18.522;2023-03-23T10:12:57;9.18;;;4.50;;
22320;SDS011;11328;53.928;18.522;2023-03-23T10:15:30;8.73;;;4.80;;
22320;SDS011;11328;53.928;18.522;2023-03-23T10:18:47;8.73;;;4.63;;
22320;SDS011;11328;53.928;18.522;2023-03-23T10:21:03;9.75;;;4.68;;
22320;SDS011;11328;53.928;18.522;2023-03-23T10:23:40;9.13;;;4.72;;
22320;SDS011;11328;53.928;18.522;2023-03-23T10:31:39;7.95;;;4.68;;
22320;SDS011;11328;53.928;18.522;2023-03-23T10:34:24;7.82;;;4.70;;
22320;SDS011;11328;53.928;18.522;2023-03-23T10:37:14;8.80;;;4.47;;
22320;SDS011;11328;53.928;18.522;2023-03-23T10:44:55;9.93;;;4.60;;
22320;SDS011;11328;53.928;18.522;2023-03-23T10:47:24;7.28;;;4.15;;
22320;SDS011;11328;53.928;18.522;2023-03-23T10:52:34;8.23;;;4.70;;
22320;SDS011;11328;53.928;18.522;2023-03-23T10:57:41;7.30;;;4.28;;
22320;SDS011;11328;53.928;18.522;2023-03-23T11:00:24;8.10;;;4.78;;
22320;SDS011;11328;53.928;18.522;2023-03-23T11:05:50;7.82;;;4.55;;
22320;SDS011;11328;53.928;18.522;2023-03-23T11:08:25;10.07;;;4.88;;
22320;SDS011;11328;53.928;18.522;2023-03-23T11:14:00;9.82;;;4.75;;
22320;SDS011;11328;53.928;18.522;2023-03-23T11:16:42;8.82;;;4.82;;
22320;SDS011;11328;53.928;18.522;2023-03-23T11:19:25;9.57;;;4.95;;
22320;SDS011;11328;53.928;18.522;2023-03-23T11:21:53;8.32;;;4.47;;
22320;SDS011;11328;53.928;18.522;2023-03-23T11:24:41;9.13;;;4.63;;
22320;SDS011;11328;53.928;18.522;2023-03-23T11:27:13;9.48;;;4.10;;
22320;SDS011;11328;53.928;18.522;2023-03-23T11:29:48;9.02;;;4.78;;
22320;SDS011;11328;53.928;18.522;2023-03-23T11:32:34;7.57;;;4.40;;
22320;SDS011;11328;53.928;18.522;2023-03-23T11:35:03;7.43;;;4.20;;
22320;SDS011;11328;53.928;18.522;2023-03-23T11:37:45;8.80;;;4.60;;
22320;SDS011;11328;53.928;18.522;2023-03-23T11:40:24;9.27;;;4.43;;
22320;SDS011;11328;53.928;18.522;2023-03-23T11:43:12;8.75;;;4.35;;
22320;SDS011;11328;53.928;18.522;2023-03-23T11:49:05;7.97;;;3.97;;
22320;SDS011;11328;53.928;18.522;2023-03-23T11:51:59;8.02;;;4.43;;
22320;SDS011;11328;53.928;18.522;2023-03-23T11:54:47;8.45;;;4.22;;
22320;SDS011;11328;53.928;18.522;2023-03-23T11:57:21;7.05;;;4.13;;
22320;SDS011;11328;53.928;18.522;2023-03-23T11:59:47;9.57;;;3.97;;
22320;SDS011;11328;53.928;18.522;2023-03-23T12:13:42;17.25;;;3.83;;
22320;SDS011;11328;53.928;18.522;2023-03-23T12:19:12;13.85;;;3.88;;
22320;SDS011;11328;53.928;18.522;2023-03-23T12:37:20;5.40;;;3.22;;
22320;SDS011;11328;53.928;18.522;2023-03-23T12:40:20;6.40;;;3.30;;
22320;SDS011;11328;53.928;18.522;2023-03-23T12:43:27;6.05;;;2.85;;
22320;SDS011;11328;53.928;18.522;2023-03-23T12:52:23;5.22;;;3.08;;
22320;SDS011;11328;53.928;18.522;2023-03-23T12:55:00;6.38;;;3.50;;
22320;SDS011;11328;53.928;18.522;2023-03-23T13:00:55;6.40;;;2.80;;
22320;SDS011;11328;53.928;18.522;2023-03-23T13:03:29;5.90;;;2.78;;
22320;SDS011;11328;53.928;18.522;2023-03-23T13:06:39;7.18;;;2.88;;
22320;SDS011;11328;53.928;18.522;2023-03-23T13:12:01;5.18;;;2.90;;
22320;SDS011;11328;53.928;18.522;2023-03-23T13:17:20;6.85;;;3.20;;
22320;SDS011;11328;53.928;18.522;2023-03-23T13:23:00;7.53;;;3.65;;
22320;SDS011;11328;53.928;18.522;2023-03-23T13:28:28;9.05;;;3.90;;
22320;SDS011;11328;53.928;18.522;2023-03-23T13:31:51;7.05;;;3.80;;
22320;SDS011;11328;53.928;18.522;2023-03-23T13:36:52;8.05;;;3.30;;
22320;SDS011;11328;53.928;18.522;2023-03-23T13:39:28;6.30;;;3.28;;
22320;SDS011;11328;53.928;18.522;2023-03-23T13:42:18;6.15;;;3.53;;
22320;SDS011;11328;53.928;18.522;2023-03-23T13:49:49;7.45;;;3.47;;
22320;SDS011;11328;53.928;18.522;2023-03-23T13:55:21;8.10;;;4.05;;
22320;SDS011;11328;53.928;18.522;2023-03-23T14:08:24;7.43;;;3.58;;
22320;SDS011;11328;53.928;18.522;2023-03-23T14:11:15;6.65;;;3.50;;
22320;SDS011;11328;53.928;18.522;2023-03-23T14:16:44;7.63;;;3.70;;
22320;SDS011;11328;53.928;18.522;2023-03-23T14:21:57;7.28;;;3.42;;
22320;SDS011;11328;53.928;18.522;2023-03-23T14:27:13;6.80;;;3.42;;
22320;SDS011;11328;53.928;18.522;2023-03-23T14:29:46;6.63;;;3.30;;
22320;SDS011;11328;53.928;18.522;2023-03-23T14:32:27;6.50;;;3.17;;
22320;SDS011;11328;53.928;18.522;2023-03-23T14:34:57;6.43;;;3.20;;
22320;SDS011;11328;53.928;18.522;2023-03-23T14:37:30;6.53;;;3.30;;
22320;SDS011;11328;53.928;18.522;2023-03-23T14:39:57;7.03;;;3.00;;
22320;SDS011;11328;53.928;18.522;2023-03-23T14:42:28;5.93;;;3.00;;
22320;SDS011;11328;53.928;18.522;2023-03-23T14:45:00;6.03;;;2.80;;
22320;SDS011;11328;53.928;18.522;2023-03-23T14:47:40;8.13;;;2.97;;
22320;SDS011;11328;53.928;18.522;2023-03-23T14:53:16;6.78;;;2.90;;
22320;SDS011;11328;53.928;18.522;2023-03-23T14:55:53;7.10;;;2.95;;
22320;SDS011;11328;53.928;18.522;2023-03-23T14:58:21;5.85;;;2.63;;
22320;SDS011;11328;53.928;18.522;2023-03-23T15:00:57;8.20;;;2.78;;
22320;SDS011;11328;53.928;18.522;2023-03-23T15:03:34;7.40;;;3.40;;
22320;SDS011;11328;53.928;18.522;2023-03-23T15:06:11;8.45;;;3.47;;
22320;SDS011;11328;53.928;18.522;2023-03-23T15:08:43;7.60;;;2.92;;
22320;SDS011;11328;53.928;18.522;2023-03-23T15:13:51;5.65;;;2.75;;
22320;SDS011;11328;53.928;18.522;2023-03-23T15:16:28;5.22;;;2.80;;
22320;SDS011;11328;53.928;18.522;2023-03-23T15:21:30;5.82;;;2.45;;
22320;SDS011;11328;53.928;18.522;2023-03-23T15:24:00;8.80;;;3.50;;
22320;SDS011;11328;53.928;18.522;2023-03-23T15:26:43;8.13;;;3.13;;
22320;SDS011;11328;53.928;18.522;2023-03-23T15:29:14;6.30;;;2.85;;
22320;SDS011;11328;53.928;18.522;2023-03-23T15:31:54;14.27;;;7.43;;
22320;SDS011;11328;53.928;18.522;2023-03-23T15:34:25;8.57;;;3.03;;
22320;SDS011;11328;53.928;18.522;2023-03-23T15:36:56;6.28;;;3.20;;
22320;SDS011;11328;53.928;18.522;2023-03-23T15:39:44;6.45;;;3.25;;
22320;SDS011;11328;53.928;18.522;2023-03-23T15:42:25;8.68;;;3.40;;
22320;SDS011;11328;53.928;18.522;2023-03-23T15:45:20;6.25;;;2.70;;
22320;SDS011;11328;53.928;18.522;2023-03-23T15:47:52;6.28;;;3.20;;
22320;SDS011;11328;53.928;18.522;2023-03-23T15:52:50;6.20;;;2.88;;
22320;SDS011;11328;53.928;18.522;2023-03-23T15:55:34;8.10;;;3.30;;
22320;SDS011;11328;53.928;18.522;2023-03-23T15:58:07;7.70;;;3.38;;
22320;SDS011;11328;53.928;18.522;2023-03-23T16:00:37;17.40;;;7.22;;
22320;SDS011;11328;53.928;18.522;2023-03-23T16:03:07;12.27;;;5.03;;
22320;SDS011;11328;53.928;18.522;2023-03-23T16:05:43;7.55;;;3.40;;
22320;SDS011;11328;53.928;18.522;2023-03-23T16:08:10;7.18;;;3.33;;
22320;SDS011;11328;53.928;18.522;2023-03-23T16:10:37;8.95;;;4.18;;
22320;SDS011;11328;53.928;18.522;2023-03-23T16:13:04;19.38;;;7.30;;
22320;SDS011;11328;53.928;18.522;2023-03-23T16:15:32;15.10;;;6.00;;
22320;SDS011;11328;53.928;18.522;2023-03-23T16:17:59;11.18;;;4.97;;
22320;SDS011;11328;53.928;18.522;2023-03-23T16:20:26;8.95;;;4.00;;
22320;SDS011;11328;53.928;18.522;2023-03-23T16:22:55;9.18;;;4.50;;
22320;SDS011;11328;53.928;18.522;2023-03-23T16:25:22;15.52;;;7.43;;
22320;SDS011;11328;53.928;18.522;2023-03-23T16:27:49;11.63;;;5.57;;
22320;SDS011;11328;53.928;18.522;2023-03-23T16:32:46;51.97;;;28.85;;
22320;SDS011;11328;53.928;18.522;2023-03-23T16:35:14;38.67;;;22.52;;
22320;SDS011;11328;53.928;18.522;2023-03-23T16:37:43;147.95;;;96.55;;
22320;SDS011;11328;53.928;18.522;2023-03-23T16:40:34;21.63;;;13.30;;
22320;SDS011;11328;53.928;18.522;2023-03-23T16:43:02;9.32;;;3.78;;
22320;SDS011;11328;53.928;18.522;2023-03-23T16:45:34;8.43;;;4.03;;
22320;SDS011;11328;53.928;18.522;2023-03-23T16:48:07;7.03;;;3.70;;
22320;SDS011;11328;53.928;18.522;2023-03-23T16:50:36;15.20;;;9.85;;
22320;SDS011;11328;53.928;18.522;2023-03-23T16:53:04;10.73;;;6.78;;
22320;SDS011;11328;53.928;18.522;2023-03-23T16:55:34;10.55;;;5.30;;
22320;SDS011;11328;53.928;18.522;2023-03-23T16:58:03;7.20;;;3.75;;
22320;SDS011;11328;53.928;18.522;2023-03-23T17:00:43;7.03;;;3.50;;
22320;SDS011;11328;53.928;18.522;2023-03-23T17:03:14;6.22;;;3.42;;
22320;SDS011;11328;53.928;18.522;2023-03-23T17:05:43;7.70;;;4.10;;
22320;SDS011;11328;53.928;18.522;2023-03-23T17:08:14;6.82;;;3.60;;
22320;SDS011;11328;53.928;18.522;2023-03-23T17:10:42;9.15;;;4.97;;
22320;SDS011;11328;53.928;18.522;2023-03-23T17:13:09;9.02;;;3.97;;
22320;SDS011;11328;53.928;18.522;2023-03-23T17:15:40;11.20;;;5.68;;